Terminal Aerodrome Forecast
Issued by NWS Flagstaff, AZ

Home | Current Version | Previous Version | Text Only | Print | Product List | Glossary On
Versions: 1 2 3 4 5 6 7 8 9 10 11 12 13 14
000
FTUS45 KFGZ 240538
TAFINW
TAF
KINW 240538Z 2406/2506 25013KT P6SM BKN070
     FM240800 25006KT P6SM SKC
     FM241800 28013G21KT P6SM SKC
     FM250200 24005KT P6SM SKC=

USA.gov is the U.S. government's official web portal to all federal, state and local government web resources and services.